Time;durP1;ratioP1;P1;durP2;ratioP2;P2;SDS_P1;SDS_P2;PMS_P1;PMS_P2;Temp;Humidity;BMP_temperature;BMP_pressure;BME280_temperature;BME280_humidity;BME280_pressure;Samples;Min_cycle;Max_cycle;Signal;HPM_P1;HPM_P2
2023/08/01 00:01:30;;;;;;;17.50;8.43;;;18.30;99.90;;;;;;5013179;28;20563;-64
2023/08/01 00:03:57;;;;;;;17.60;11.40;;;18.40;99.90;;;;;;5011563;28;20480;-67
2023/08/01 00:06:24;;;;;;;11.70;9.50;;;18.40;99.90;;;;;;5009045;28;20852;-68
2023/08/01 00:08:53;;;;;;;14.70;11.43;;;18.50;99.90;;;;;;4997434;28;21027;-65
2023/08/01 00:11:20;;;;;;;13.60;8.53;;;18.50;99.90;;;;;;5015125;28;20571;-64
2023/08/01 00:13:46;;;;;;;15.87;10.93;;;18.50;99.90;;;;;;5003673;28;20976;-66
2023/08/01 00:16:13;;;;;;;12.40;8.57;;;18.60;99.90;;;;;;5010513;28;20643;-68
2023/08/01 00:18:40;;;;;;;10.83;7.90;;;18.50;99.90;;;;;;5008157;28;20548;-67
2023/08/01 00:21:09;;;;;;;14.80;7.93;;;18.40;99.90;;;;;;5007982;28;20475;-62
2023/08/01 00:23:36;;;;;;;11.70;8.50;;;18.60;99.90;;;;;;5017857;28;20794;-66
2023/08/01 00:26:04;;;;;;;10.53;8.20;;;18.60;99.90;;;;;;5000470;28;20480;-65
2023/08/01 00:28:32;;;;;;;11.17;7.17;;;18.70;99.90;;;;;;5024847;28;20816;-66
2023/08/01 00:31:06;;;;;;;17.63;9.10;;;18.70;99.90;;;;;;5006839;28;20980;-67
2023/08/01 00:33:33;;;;;;;9.80;8.77;;;18.60;99.90;;;;;;4998089;28;21011;-68
2023/08/01 00:36:00;;;;;;;12.30;8.00;;;18.60;99.90;;;;;;4999265;28;21285;-67
2023/08/01 00:38:27;;;;;;;8.90;7.33;;;18.60;99.90;;;;;;5014177;28;20912;-67
2023/08/01 00:40:54;;;;;;;12.57;10.33;;;18.60;99.90;;;;;;5002617;28;21164;-67
2023/08/01 00:43:22;;;;;;;14.87;10.00;;;18.50;99.90;;;;;;4985382;28;20484;-66
2023/08/01 00:45:49;;;;;;;15.23;10.10;;;18.50;99.90;;;;;;5025476;28;20575;-68
2023/08/01 00:48:18;;;;;;;11.03;8.23;;;18.50;99.90;;;;;;5016403;28;20854;-64
2023/08/01 00:50:46;;;;;;;13.10;10.07;;;18.50;99.90;;;;;;5010696;28;20999;-68
2023/08/01 00:53:13;;;;;;;18.17;9.13;;;18.40;99.90;;;;;;5012549;28;20486;-67
2023/08/01 00:55:40;;;;;;;16.03;9.67;;;18.40;99.90;;;;;;5013124;28;20501;-64
2023/08/01 00:58:07;;;;;;;12.77;9.47;;;18.50;99.90;;;;;;5025368;28;20499;-65
2023/08/01 01:00:36;;;;;;;14.70;8.70;;;18.50;99.90;;;;;;5013204;28;20478;-66
2023/08/01 01:03:03;;;;;;;12.27;8.10;;;18.50;99.90;;;;;;4996432;28;20496;-67
2023/08/01 01:05:36;;;;;;;17.90;8.20;;;18.50;99.90;;;;;;5020451;28;20501;-65
2023/08/01 01:08:04;;;;;;;10.93;7.90;;;18.60;99.90;;;;;;5015017;28;20821;-65
2023/08/01 01:10:31;;;;;;;11.97;8.17;;;18.60;99.90;;;;;;5022231;28;20499;-65
2023/08/01 01:12:58;;;;;;;14.10;9.63;;;18.70;99.90;;;;;;5010832;28;20454;-65
2023/08/01 01:15:25;;;;;;;9.23;7.00;;;18.70;99.90;;;;;;5015823;28;20918;-65
2023/08/01 01:17:53;;;;;;;18.50;11.50;;;18.70;99.90;;;;;;5003804;28;20480;-64
2023/08/01 01:20:24;;;;;;;9.20;7.87;;;18.70;99.90;;;;;;5007069;28;20488;-65
2023/08/01 01:22:53;;;;;;;17.87;10.13;;;18.70;99.90;;;;;;5010788;28;20491;-65
2023/08/01 01:25:22;;;;;;;11.43;8.20;;;18.70;99.90;;;;;;5011964;28;20697;-65
2023/08/01 01:27:52;;;;;;;16.00;9.50;;;18.80;99.90;;;;;;5027326;28;20490;-67
2023/08/01 01:30:20;;;;;;;9.60;7.53;;;18.80;99.90;;;;;;5015741;28;20499;-67
2023/08/01 01:32:47;;;;;;;20.63;9.77;;;18.80;99.90;;;;;;5017147;28;20476;-66
2023/08/01 01:35:14;;;;;;;14.50;9.50;;;18.80;99.90;;;;;;5021389;28;20486;-67
2023/08/01 01:37:41;;;;;;;11.07;7.80;;;18.70;99.90;;;;;;5012914;28;20897;-66
2023/08/01 01:40:10;;;;;;;13.90;7.23;;;18.70;99.90;;;;;;5015644;28;21023;-64
2023/08/01 01:42:37;;;;;;;10.43;7.63;;;18.70;99.90;;;;;;5011014;28;20818;-66
2023/08/01 01:45:06;;;;;;;15.17;9.10;;;18.70;99.90;;;;;;5010538;28;20478;-64
2023/08/01 01:47:33;;;;;;;13.20;7.83;;;18.70;99.90;;;;;;5013641;28;20476;-68
2023/08/01 01:50:00;;;;;;;11.40;7.43;;;18.70;99.90;;;;;;5001921;28;20736;-66
2023/08/01 01:52:27;;;;;;;15.87;10.87;;;18.70;99.90;;;;;;5023534;28;21153;-67
2023/08/01 01:54:54;;;;;;;21.63;10.37;;;18.70;99.90;;;;;;5010342;28;20568;-67
2023/08/01 01:57:22;;;;;;;8.53;7.30;;;18.70;99.90;;;;;;5013551;28;20486;-66
2023/08/01 01:59:49;;;;;;;15.37;9.60;;;18.80;99.90;;;;;;5013099;28;20481;-66
2023/08/01 02:02:16;;;;;;;12.87;7.17;;;18.80;99.90;;;;;;5000611;28;21474;-67
2023/08/01 02:04:43;;;;;;;16.93;7.87;;;18.80;99.90;;;;;;5028168;28;20487;-67
2023/08/01 02:07:09;;;;;;;10.00;8.30;;;18.80;99.90;;;;;;5014831;28;21381;-67
2023/08/01 02:09:36;;;;;;;12.80;8.30;;;18.90;99.90;;;;;;5018476;28;20481;-68
2023/08/01 02:12:04;;;;;;;16.67;9.70;;;18.80;99.90;;;;;;5011676;28;20476;-65
2023/08/01 02:14:32;;;;;;;11.83;7.00;;;18.70;99.90;;;;;;5006006;28;20491;-67
2023/08/01 02:16:59;;;;;;;15.47;9.77;;;18.70;99.90;;;;;;5017795;28;20569;-67
2023/08/01 02:19:26;;;;;;;10.97;7.30;;;18.50;99.90;;;;;;5025384;28;20475;-66
2023/08/01 02:21:54;;;;;;;13.90;10.33;;;18.50;99.90;;;;;;5013354;28;21911;-68
2023/08/01 02:24:21;;;;;;;15.60;8.83;;;18.50;99.90;;;;;;5019664;28;20506;-68
2023/08/01 02:26:48;;;;;;;14.30;9.20;;;18.60;99.90;;;;;;5014679;28;20467;-68
2023/08/01 02:29:15;;;;;;;11.43;7.30;;;18.60;99.90;;;;;;5013465;28;20901;-68
2023/08/01 02:31:44;;;;;;;17.83;8.53;;;18.70;99.90;;;;;;5008287;28;20489;-64
2023/08/01 02:34:10;;;;;;;14.53;7.87;;;18.70;99.90;;;;;;5009031;28;20479;-67
2023/08/01 02:36:37;;;;;;;13.00;7.80;;;18.70;99.90;;;;;;5011412;28;20488;-68
2023/08/01 02:39:04;;;;;;;16.27;10.07;;;18.60;99.90;;;;;;5007709;28;20514;-65
2023/08/01 02:41:30;;;;;;;12.20;8.30;;;18.50;99.90;;;;;;4999755;28;21096;-67
2023/08/01 02:43:57;;;;;;;16.27;9.97;;;18.60;99.90;;;;;;5025373;28;20673;-67
2023/08/01 02:46:24;;;;;;;10.70;7.50;;;18.60;99.90;;;;;;5011728;28;20486;-66
2023/08/01 02:48:52;;;;;;;16.87;9.10;;;18.60;99.90;;;;;;5002123;28;20480;-67
2023/08/01 02:51:19;;;;;;;14.57;8.90;;;18.60;99.90;;;;;;5013429;28;20471;-68
2023/08/01 02:53:46;;;;;;;12.17;8.90;;;18.70;99.90;;;;;;5013865;28;21010;-68
2023/08/01 02:56:13;;;;;;;10.03;7.20;;;18.70;99.90;;;;;;5017819;28;20805;-67
2023/08/01 02:58:40;;;;;;;11.03;7.60;;;18.60;99.90;;;;;;5024018;28;20560;-66
2023/08/01 03:01:09;;;;;;;13.40;7.83;;;18.60;99.90;;;;;;5006192;28;20484;-67
2023/08/01 03:03:36;;;;;;;10.10;7.30;;;18.60;99.90;;;;;;5012113;28;20896;-66
2023/08/01 03:06:04;;;;;;;11.70;8.97;;;18.60;99.90;;;;;;5011741;28;20555;-69
2023/08/01 03:08:31;;;;;;;15.77;7.77;;;18.60;99.90;;;;;;5032322;28;20975;-66
2023/08/01 03:10:59;;;;;;;18.03;9.27;;;18.60;99.90;;;;;;5003719;28;20819;-64
2023/08/01 03:13:25;;;;;;;14.37;9.30;;;18.60;99.90;;;;;;5026841;28;21068;-66
2023/08/01 03:15:52;;;;;;;14.50;7.97;;;18.60;99.90;;;;;;5007572;28;20473;-65
2023/08/01 03:18:19;;;;;;;17.27;7.60;;;18.60;99.90;;;;;;5008773;28;20494;-67
2023/08/01 03:20:46;;;;;;;12.30;9.20;;;18.60;99.90;;;;;;5015579;28;20488;-66
2023/08/01 03:23:14;;;;;;;11.27;8.37;;;18.50;99.90;;;;;;5026442;28;21104;-64
2023/08/01 03:25:41;;;;;;;9.37;7.43;;;18.50;99.90;;;;;;5004540;28;20480;-62
2023/08/01 03:28:09;;;;;;;11.93;7.67;;;18.50;99.90;;;;;;5000937;28;20534;-66
2023/08/01 03:30:36;;;;;;;12.90;8.00;;;18.50;99.90;;;;;;5019313;28;21075;-65
2023/08/01 03:33:04;;;;;;;14.17;8.87;;;18.50;99.90;;;;;;5011621;28;21046;-66
2023/08/01 03:35:31;;;;;;;9.30;7.50;;;18.50;99.90;;;;;;5003836;28;20477;-67
2023/08/01 03:37:58;;;;;;;15.60;10.67;;;18.40;99.90;;;;;;5031652;28;20488;-62
2023/08/01 03:40:26;;;;;;;10.73;8.33;;;18.30;99.90;;;;;;5026001;28;20480;-62
2023/08/01 03:42:53;;;;;;;17.33;10.60;;;18.30;99.90;;;;;;4999430;28;20594;-64
2023/08/01 03:45:20;;;;;;;15.20;10.73;;;18.30;99.90;;;;;;5028923;28;20810;-64
2023/08/01 03:47:47;;;;;;;12.27;10.73;;;18.30;99.90;;;;;;5015011;28;20479;-63
2023/08/01 03:50:14;;;;;;;18.97;9.50;;;18.20;99.90;;;;;;5034354;28;20806;-65
2023/08/01 03:52:41;;;;;;;11.83;10.00;;;18.20;99.90;;;;;;5010354;28;20478;-66
2023/08/01 03:55:08;;;;;;;20.07;11.90;;;18.20;99.90;;;;;;5019812;28;21195;-62
2023/08/01 03:57:38;;;;;;;18.50;11.33;;;18.10;99.90;;;;;;5026728;28;20458;-65
2023/08/01 04:00:13;;;;;;;15.60;10.77;;;18.00;99.90;;;;;;4979509;28;20485;-66
2023/08/01 04:02:40;;;;;;;15.47;11.37;;;18.00;99.90;;;;;;4995988;28;20575;-65
2023/08/01 04:05:08;;;;;;;16.90;13.13;;;18.00;99.90;;;;;;5014181;28;20563;-64
2023/08/01 04:07:35;;;;;;;16.17;12.30;;;17.90;99.90;;;;;;5016739;28;20529;-66
2023/08/01 04:10:02;;;;;;;15.60;10.27;;;17.90;99.90;;;;;;5006716;28;20477;-64
2023/08/01 04:12:29;;;;;;;15.10;9.57;;;17.80;99.90;;;;;;5020440;28;20518;-66
2023/08/01 04:14:57;;;;;;;16.37;12.60;;;17.70;99.90;;;;;;5004062;28;20510;-62
2023/08/01 04:17:24;;;;;;;19.30;11.67;;;17.60;99.90;;;;;;5015305;28;20480;-63
2023/08/01 04:19:51;;;;;;;17.00;13.30;;;17.70;99.90;;;;;;5019931;28;20494;-63
2023/08/01 04:22:18;;;;;;;11.80;9.80;;;17.60;99.90;;;;;;5015657;28;20480;-67
2023/08/01 04:24:45;;;;;;;18.27;12.30;;;17.50;99.90;;;;;;5005284;28;20931;-63
2023/08/01 04:27:12;;;;;;;13.97;9.60;;;17.60;99.90;;;;;;5014664;28;20478;-67
2023/08/01 04:29:39;;;;;;;15.40;10.97;;;17.70;99.90;;;;;;4999070;28;20558;-66
2023/08/01 04:32:08;;;;;;;15.57;10.07;;;17.50;99.90;;;;;;5021664;28;20495;-64
2023/08/01 04:34:35;;;;;;;14.40;9.90;;;17.50;99.90;;;;;;5016609;28;20484;-68
2023/08/01 04:37:02;;;;;;;14.67;9.30;;;17.70;99.90;;;;;;5006057;28;20581;-65
2023/08/01 04:39:29;;;;;;;15.07;9.97;;;17.60;99.90;;;;;;5020833;28;20487;-67
2023/08/01 04:41:56;;;;;;;18.23;13.17;;;17.60;99.90;;;;;;5017176;28;20985;-67
2023/08/01 04:44:22;;;;;;;17.60;10.80;;;17.50;99.90;;;;;;5007601;28;20485;-67
2023/08/01 04:46:49;;;;;;;18.00;12.60;;;17.40;99.90;;;;;;5011774;28;20578;-68
2023/08/01 04:49:19;;;;;;;12.40;9.83;;;17.40;99.90;;;;;;5009516;28;20483;-66
2023/08/01 04:51:45;;;;;;;19.00;11.00;;;17.30;99.90;;;;;;5022164;28;20509;-67
2023/08/01 04:54:12;;;;;;;10.97;8.13;;;17.30;99.90;;;;;;5016740;28;20582;-67
2023/08/01 04:56:39;;;;;;;13.73;9.00;;;17.30;99.90;;;;;;5017872;28;20486;-66
2023/08/01 04:59:06;;;;;;;13.83;7.83;;;17.40;99.90;;;;;;5013008;28;20487;-66
2023/08/01 05:01:33;;;;;;;20.83;8.93;;;17.50;99.90;;;;;;5018562;28;20487;-69
2023/08/01 05:04:00;;;;;;;9.47;7.60;;;17.40;99.90;;;;;;5011642;28;21501;-66
2023/08/01 05:06:28;;;;;;;9.43;6.97;;;17.50;99.90;;;;;;5025039;28;20720;-65
2023/08/01 05:08:55;;;;;;;15.20;9.63;;;17.50;99.90;;;;;;4991077;28;20476;-65
2023/08/01 05:11:22;;;;;;;10.50;7.50;;;17.60;99.90;;;;;;5024640;28;20507;-64
2023/08/01 05:13:49;;;;;;;9.40;7.87;;;17.50;99.90;;;;;;5010605;28;20661;-64
2023/08/01 05:16:16;;;;;;;11.10;8.07;;;17.60;99.90;;;;;;5029234;28;20502;-67
2023/08/01 05:18:43;;;;;;;9.20;8.17;;;17.50;99.90;;;;;;5017564;28;20559;-62
2023/08/01 05:21:10;;;;;;;14.20;7.40;;;17.70;99.90;;;;;;5008374;28;20817;-67
2023/08/01 05:23:38;;;;;;;7.00;6.23;;;17.50;99.90;;;;;;5016633;28;20802;-66
2023/08/01 05:26:05;;;;;;;9.10;6.30;;;17.30;99.90;;;;;;5002922;28;20594;-69
2023/08/01 05:28:32;;;;;;;11.27;8.30;;;17.40;99.90;;;;;;5013146;28;20488;-67
2023/08/01 05:30:59;;;;;;;12.87;7.77;;;17.40;99.90;;;;;;5006195;28;20479;-67
2023/08/01 05:33:26;;;;;;;8.70;5.17;;;17.50;99.90;;;;;;5032761;28;21024;-66
2023/08/01 05:35:53;;;;;;;8.97;7.57;;;17.60;99.90;;;;;;5023644;28;20488;-67
2023/08/01 05:38:19;;;;;;;7.87;6.50;;;17.60;99.90;;;;;;5010974;28;20495;-68
2023/08/01 05:40:48;;;;;;;9.67;7.33;;;17.60;99.90;;;;;;5006322;28;20673;-68
2023/08/01 05:43:15;;;;;;;6.27;5.53;;;17.60;99.90;;;;;;5020902;28;20575;-69
2023/08/01 05:45:41;;;;;;;6.03;4.90;;;17.60;99.90;;;;;;5002967;28;21023;-69
2023/08/01 05:48:08;;;;;;;7.00;4.87;;;17.70;99.90;;;;;;5017685;28;20570;-65
2023/08/01 05:50:35;;;;;;;6.03;4.97;;;17.70;99.90;;;;;;5018226;28;21007;-69
2023/08/01 05:53:02;;;;;;;6.27;4.87;;;17.60;99.90;;;;;;5007750;28;20905;-65
2023/08/01 05:55:29;;;;;;;5.83;5.23;;;17.50;99.90;;;;;;5022912;28;20478;-67
2023/08/01 05:57:58;;;;;;;6.30;5.50;;;17.60;99.90;;;;;;5009139;28;20559;-67
2023/08/01 06:00:25;;;;;;;4.43;4.03;;;17.60;99.90;;;;;;5010784;28;21001;-66
2023/08/01 06:02:51;;;;;;;8.20;6.53;;;17.70;99.90;;;;;;4999277;28;20876;-65
2023/08/01 06:05:18;;;;;;;10.47;3.87;;;17.60;99.90;;;;;;5030374;28;20475;-69
2023/08/01 06:07:45;;;;;;;5.77;5.17;;;17.70;99.90;;;;;;5015847;28;20551;-66
2023/08/01 06:10:12;;;;;;;4.67;4.00;;;17.80;99.90;;;;;;5022164;28;20483;-66
2023/08/01 06:12:39;;;;;;;5.13;4.63;;;17.80;99.90;;;;;;5009460;28;21024;-66
2023/08/01 06:15:08;;;;;;;5.57;5.07;;;17.90;99.90;;;;;;5013229;28;20963;-65
2023/08/01 06:17:35;;;;;;;3.80;3.30;;;17.90;99.90;;;;;;5015235;28;20615;-65
2023/08/01 06:20:04;;;;;;;4.77;3.80;;;18.00;99.90;;;;;;5024846;28;20491;-67
2023/08/01 06:22:31;;;;;;;4.33;3.93;;;18.10;99.90;;;;;;5018772;28;20476;-63
2023/08/01 06:24:58;;;;;;;5.30;4.83;;;18.00;99.90;;;;;;5020078;28;20486;-66
2023/08/01 06:27:26;;;;;;;4.93;4.23;;;18.00;99.90;;;;;;5017591;28;21597;-69
2023/08/01 06:29:53;;;;;;;6.37;5.10;;;18.00;99.90;;;;;;5023620;28;20967;-63
2023/08/01 06:32:21;;;;;;;3.73;3.43;;;18.00;99.90;;;;;;5027934;28;20798;-63
2023/08/01 06:34:48;;;;;;;6.17;5.10;;;18.10;99.90;;;;;;5018573;28;20576;-65
2023/08/01 06:37:14;;;;;;;4.70;3.90;;;18.20;99.90;;;;;;5010766;28;20601;-64
2023/08/01 06:39:41;;;;;;;5.07;3.70;;;18.30;99.90;;;;;;5035204;28;20483;-66
2023/08/01 06:42:08;;;;;;;4.70;3.03;;;18.30;99.90;;;;;;5016373;28;20475;-67
2023/08/01 06:44:35;;;;;;;3.90;3.60;;;18.30;99.90;;;;;;5002498;28;20676;-65
2023/08/01 06:47:02;;;;;;;6.10;3.17;;;18.40;99.90;;;;;;5008880;28;20475;-63
2023/08/01 06:49:30;;;;;;;4.00;2.60;;;18.50;99.90;;;;;;5025487;28;20996;-63
2023/08/01 06:51:57;;;;;;;3.80;3.50;;;18.50;99.90;;;;;;5010211;28;20480;-66
2023/08/01 06:54:24;;;;;;;3.07;2.80;;;18.60;99.90;;;;;;5025935;28;20567;-63
2023/08/01 06:56:51;;;;;;;5.50;5.00;;;19.00;99.90;;;;;;5023736;28;20517;-66
2023/08/01 06:59:18;;;;;;;2.73;2.50;;;18.70;99.90;;;;;;5018396;28;20508;-63
2023/08/01 07:01:44;;;;;;;3.33;3.03;;;18.80;99.90;;;;;;5013224;28;20525;-65
2023/08/01 07:04:11;;;;;;;3.20;2.90;;;18.90;99.90;;;;;;5002993;28;20494;-66
2023/08/01 07:06:40;;;;;;;5.30;2.60;;;18.90;99.90;;;;;;5021152;28;20532;-62
2023/08/01 07:09:07;;;;;;;3.23;2.93;;;18.90;99.90;;;;;;5015964;28;20496;-66
2023/08/01 07:11:34;;;;;;;2.40;2.13;;;18.90;99.90;;;;;;5004093;28;20458;-64
2023/08/01 07:14:02;;;;;;;3.27;3.07;;;19.00;99.90;;;;;;5013539;28;20479;-65
2023/08/01 07:16:29;;;;;;;3.53;2.60;;;19.00;99.90;;;;;;5011767;28;20446;-65
2023/08/01 07:18:56;;;;;;;5.20;4.80;;;19.00;99.90;;;;;;5014557;28;20487;-65
2023/08/01 07:21:23;;;;;;;2.60;2.40;;;19.10;99.90;;;;;;5009799;28;20475;-64
2023/08/01 07:23:51;;;;;;;4.47;3.93;;;19.20;99.90;;;;;;5011415;28;20520;-67
2023/08/01 07:26:18;;;;;;;5.03;2.43;;;18.80;99.90;;;;;;5013526;28;21035;-66
2023/08/01 07:28:45;;;;;;;3.37;3.07;;;19.30;99.90;;;;;;5019769;28;20576;-64
2023/08/01 07:31:12;;;;;;;3.20;2.90;;;18.70;99.90;;;;;;5017808;28;20464;-66
2023/08/01 07:33:39;;;;;;;2.83;2.63;;;19.60;99.90;;;;;;5021109;28;20608;-65
2023/08/01 07:36:06;;;;;;;4.70;3.93;;;19.80;99.90;;;;;;5028875;28;20594;-64
2023/08/01 07:38:33;;;;;;;3.13;2.83;;;19.90;99.90;;;;;;5019882;28;20477;-67
2023/08/01 07:41:03;;;;;;;2.77;2.57;;;20.20;99.90;;;;;;5019555;28;20680;-66
2023/08/01 07:43:30;;;;;;;3.53;2.67;;;20.30;99.90;;;;;;5013672;28;20487;-66
2023/08/01 07:45:58;;;;;;;3.93;3.63;;;20.50;99.90;;;;;;5016397;28;20754;-67
2023/08/01 07:48:25;;;;;;;3.07;2.57;;;20.60;99.90;;;;;;5010389;28;20953;-66
2023/08/01 07:50:52;;;;;;;4.20;3.90;;;20.50;99.90;;;;;;5011766;28;20509;-65
2023/08/01 07:53:19;;;;;;;2.90;2.70;;;20.50;99.90;;;;;;5012296;28;20996;-66
2023/08/01 07:55:46;;;;;;;3.73;3.30;;;20.30;99.90;;;;;;5015959;28;20686;-67
2023/08/01 07:58:14;;;;;;;3.03;2.73;;;20.20;99.90;;;;;;5023958;28;20495;-69
2023/08/01 08:00:41;;;;;;;2.80;2.57;;;20.20;99.90;;;;;;5020737;28;20490;-67
2023/08/01 08:03:08;;;;;;;4.87;3.50;;;20.30;99.90;;;;;;5019256;28;20484;-68
2023/08/01 08:05:38;;;;;;;3.13;2.37;;;20.20;99.90;;;;;;5018915;28;20487;-65
2023/08/01 08:08:05;;;;;;;2.83;2.63;;;20.20;99.90;;;;;;5016857;28;20507;-67
2023/08/01 08:10:33;;;;;;;3.43;2.80;;;20.10;99.90;;;;;;5016655;28;20476;-67
2023/08/01 08:12:59;;;;;;;3.77;3.40;;;20.20;99.90;;;;;;5016035;28;20489;-65
2023/08/01 08:15:33;;;;;;;4.00;2.73;;;20.20;99.90;;;;;;5015475;28;20472;-65
2023/08/01 08:18:00;;;;;;;3.30;3.00;;;20.30;99.90;;;;;;5007986;28;20460;-68
2023/08/01 08:20:27;;;;;;;2.83;2.33;;;20.30;99.90;;;;;;5011730;28;20527;-66
2023/08/01 08:22:54;;;;;;;4.40;4.00;;;20.30;99.90;;;;;;4996481;28;20479;-64
2023/08/01 08:25:21;;;;;;;3.40;3.07;;;20.30;99.90;;;;;;5030334;28;21007;-66
2023/08/01 08:27:49;;;;;;;3.93;2.83;;;20.30;99.90;;;;;;5014755;28;20859;-65
2023/08/01 08:30:16;;;;;;;4.30;2.90;;;20.30;99.90;;;;;;5017984;28;20512;-65
2023/08/01 08:32:44;;;;;;;3.33;3.00;;;20.40;99.90;;;;;;5014606;28;20896;-66
2023/08/01 08:35:12;;;;;;;3.47;3.17;;;20.60;99.90;;;;;;5014498;28;20483;-65
2023/08/01 08:37:38;;;;;;;3.40;3.10;;;20.60;99.90;;;;;;5013039;28;20927;-64
2023/08/01 08:40:06;;;;;;;3.93;3.50;;;20.80;99.90;;;;;;5004835;28;20583;-65
2023/08/01 08:42:35;;;;;;;3.57;2.47;;;20.90;99.90;;;;;;5016675;28;20485;-65
2023/08/01 08:45:04;;;;;;;3.00;2.80;;;21.00;99.90;;;;;;5015398;28;20484;-65
2023/08/01 08:47:36;;;;;;;3.43;3.13;;;21.00;99.90;;;;;;5013187;28;20580;-66
2023/08/01 08:50:06;;;;;;;7.83;3.07;;;21.10;99.90;;;;;;5015830;28;20890;-68
2023/08/01 08:52:33;;;;;;;3.10;2.77;;;21.20;99.90;;;;;;5016905;28;20570;-66
2023/08/01 08:55:02;;;;;;;3.67;3.37;;;21.40;99.90;;;;;;5017759;28;20611;-65
2023/08/01 08:57:30;;;;;;;3.53;3.13;;;21.50;99.90;;;;;;5010847;28;20454;-66
2023/08/01 08:59:58;;;;;;;4.37;3.97;;;21.70;99.90;;;;;;5015828;28;20721;-66
2023/08/01 09:02:26;;;;;;;4.50;3.40;;;21.80;99.90;;;;;;5026154;28;20594;-66
2023/08/01 09:04:52;;;;;;;4.57;4.17;;;21.90;99.90;;;;;;5012986;28;20579;-66
2023/08/01 09:07:26;;;;;;;3.67;3.37;;;21.90;99.90;;;;;;5020556;28;20590;-67
2023/08/01 09:09:53;;;;;;;5.10;4.30;;;22.10;99.90;;;;;;5023417;28;21033;-65
2023/08/01 09:12:20;;;;;;;3.13;2.73;;;22.00;99.90;;;;;;5025385;28;20510;-66
2023/08/01 09:14:49;;;;;;;4.93;4.47;;;22.10;99.90;;;;;;5023157;28;20497;-66
2023/08/01 09:17:18;;;;;;;3.53;3.23;;;22.20;99.90;;;;;;5021078;28;20764;-66
2023/08/01 09:19:45;;;;;;;4.70;4.03;;;22.00;99.90;;;;;;5018726;28;20466;-67
2023/08/01 09:22:12;;;;;;;3.80;3.50;;;22.00;99.90;;;;;;5021845;28;21168;-66
2023/08/01 09:24:51;;;;;;;4.30;3.90;;;22.00;99.90;;;;;;5024236;28;20486;-65
2023/08/01 09:27:18;;;;;;;5.10;3.97;;;22.10;99.90;;;;;;5013340;28;21175;-65
2023/08/01 09:29:45;;;;;;;4.20;3.13;;;22.10;99.90;;;;;;5020860;28;20487;-66
2023/08/01 09:32:16;;;;;;;4.47;4.07;;;22.10;99.90;;;;;;5022952;28;20591;-68
2023/08/01 09:34:43;;;;;;;4.47;4.07;;;22.10;99.80;;;;;;5017630;28;20952;-66
2023/08/01 09:37:10;;;;;;;3.73;3.43;;;22.00;99.90;;;;;;5011346;28;20489;-66
2023/08/01 09:39:37;;;;;;;4.00;3.17;;;22.10;99.90;;;;;;5021351;28;20854;-65
2023/08/01 09:42:09;;;;;;;5.63;3.40;;;22.20;99.90;;;;;;5005436;28;20516;-66
2023/08/01 09:44:36;;;;;;;4.83;3.57;;;22.20;99.90;;;;;;5007023;28;20472;-67
2023/08/01 09:47:06;;;;;;;6.90;4.03;;;22.20;99.50;;;;;;5009395;28;20890;-67
2023/08/01 09:49:34;;;;;;;4.30;3.37;;;22.40;99.80;;;;;;5004009;28;20473;-63
2023/08/01 09:52:02;;;;;;;4.30;3.90;;;22.30;98.80;;;;;;5009994;28;20479;-67
2023/08/01 09:54:29;;;;;;;4.10;3.67;;;22.40;98.70;;;;;;5019910;28;20464;-67
2023/08/01 09:56:57;;;;;;;7.13;5.30;;;22.40;99.40;;;;;;5003309;28;20458;-67
2023/08/01 09:59:26;;;;;;;4.27;3.87;;;22.60;99.90;;;;;;5034722;28;20486;-65
2023/08/01 10:01:55;;;;;;;4.93;4.03;;;22.70;99.00;;;;;;5014924;28;20537;-65
2023/08/01 10:04:26;;;;;;;6.80;3.00;;;22.70;99.00;;;;;;5017831;28;20488;-66
2023/08/01 10:06:59;;;;;;;5.30;4.80;;;22.90;98.00;;;;;;5018777;28;20462;-66
2023/08/01 10:09:26;;;;;;;4.57;3.60;;;22.70;97.30;;;;;;5023050;28;20836;-65
2023/08/01 10:11:53;;;;;;;5.23;4.73;;;22.60;97.40;;;;;;5004221;28;20451;-64
2023/08/01 10:14:21;;;;;;;4.70;2.83;;;22.70;96.80;;;;;;5007488;28;20464;-65
2023/08/01 10:16:50;;;;;;;5.53;4.30;;;22.70;97.10;;;;;;5027759;28;20449;-65
2023/08/01 10:19:18;;;;;;;4.83;3.27;;;22.60;96.80;;;;;;5013259;28;20497;-66
2023/08/01 10:21:45;;;;;;;4.83;4.27;;;22.40;97.80;;;;;;5013245;28;21106;-65
2023/08/01 10:24:13;;;;;;;10.17;3.87;;;22.50;99.80;;;;;;5001949;28;20478;-65
2023/08/01 10:26:40;;;;;;;4.40;3.87;;;22.50;98.60;;;;;;5017243;28;20499;-65
2023/08/01 10:29:07;;;;;;;4.17;3.87;;;22.70;97.80;;;;;;5028125;28;21200;-64
2023/08/01 10:31:34;;;;;;;3.63;3.33;;;22.50;96.70;;;;;;5010454;28;20484;-65
2023/08/01 10:34:14;;;;;;;6.47;4.30;;;22.50;97.40;;;;;;5032604;28;20489;-64
2023/08/01 10:36:41;;;;;;;4.40;3.27;;;22.50;97.40;;;;;;5008755;28;20478;-64
2023/08/01 10:39:08;;;;;;;4.60;3.57;;;22.30;97.10;;;;;;5011707;28;20459;-64
2023/08/01 10:41:36;;;;;;;4.80;3.20;;;22.30;97.40;;;;;;5003265;28;20459;-66
2023/08/01 10:44:08;;;;;;;5.03;4.33;;;22.20;97.20;;;;;;5018192;28;20495;-65
2023/08/01 10:46:48;;;;;;;3.80;3.50;;;22.20;97.30;;;;;;5019268;28;20504;-63
2023/08/01 10:49:18;;;;;;;3.60;3.30;;;22.30;97.50;;;;;;4995963;28;20486;-65
2023/08/01 10:51:45;;;;;;;4.27;3.87;;;22.40;97.20;;;;;;5017151;28;20535;-64
2023/08/01 10:54:25;;;;;;;4.33;4.03;;;22.60;97.40;;;;;;5019296;28;20569;-65
2023/08/01 10:56:53;;;;;;;5.30;4.90;;;22.90;98.60;;;;;;5018984;28;21202;-65
2023/08/01 10:59:21;;;;;;;5.63;3.60;;;23.10;97.40;;;;;;5010749;28;20452;-64
2023/08/01 11:01:50;;;;;;;3.90;3.60;;;23.40;97.60;;;;;;5014174;28;20871;-65
2023/08/01 11:04:20;;;;;;;4.37;3.57;;;23.50;98.50;;;;;;5017820;28;20450;-66
2023/08/01 11:06:48;;;;;;;5.70;5.10;;;23.60;95.80;;;;;;5021133;28;20792;-62
2023/08/01 11:09:22;;;;;;;6.00;3.67;;;23.60;95.90;;;;;;5017921;28;20838;-63
2023/08/01 11:11:51;;;;;;;5.60;4.57;;;23.60;95.10;;;;;;5013093;28;20588;-64
2023/08/01 11:14:21;;;;;;;3.63;2.70;;;23.70;95.70;;;;;;5012522;28;20881;-65
2023/08/01 11:16:48;;;;;;;4.00;3.70;;;23.70;95.60;;;;;;5008140;28;20486;-65
2023/08/01 11:19:21;;;;;;;4.53;3.03;;;23.40;95.60;;;;;;5030031;28;20460;-63
2023/08/01 11:21:48;;;;;;;5.80;4.00;;;23.70;96.00;;;;;;4993271;28;20502;-64
2023/08/01 11:24:15;;;;;;;3.27;2.97;;;23.60;94.60;;;;;;5011519;28;20579;-65
2023/08/01 11:26:43;;;;;;;3.77;3.47;;;23.30;94.20;;;;;;5005170;28;21364;-64
2023/08/01 11:29:11;;;;;;;4.33;3.10;;;23.30;95.10;;;;;;5011035;28;20509;-66
2023/08/01 11:31:38;;;;;;;4.23;3.80;;;23.30;94.90;;;;;;5011166;28;20806;-64
2023/08/01 11:34:05;;;;;;;6.97;4.90;;;23.20;95.30;;;;;;5006450;28;20596;-64
2023/08/01 11:36:33;;;;;;;4.70;3.90;;;23.30;95.60;;;;;;5008335;28;20595;-64
2023/08/01 11:39:01;;;;;;;3.80;3.50;;;23.50;95.50;;;;;;5018006;28;20862;-66
2023/08/01 11:41:28;;;;;;;3.83;2.57;;;23.40;94.70;;;;;;5009543;28;20978;-65
2023/08/01 11:43:55;;;;;;;5.73;4.70;;;23.40;94.10;;;;;;5006715;28;20484;-62
2023/08/01 11:46:22;;;;;;;5.77;4.17;;;23.20;94.90;;;;;;5014557;28;20474;-65
2023/08/01 11:48:50;;;;;;;5.83;4.27;;;23.00;94.70;;;;;;5017643;28;20487;-63
2023/08/01 11:51:17;;;;;;;5.00;2.90;;;23.30;94.10;;;;;;5013619;28;20507;-64
2023/08/01 11:53:46;;;;;;;5.47;4.07;;;23.50;93.90;;;;;;5009891;28;20489;-64
2023/08/01 11:56:22;;;;;;;3.93;3.53;;;23.50;94.20;;;;;;5003224;28;20454;-65
2023/08/01 11:58:49;;;;;;;5.90;5.07;;;23.50;93.70;;;;;;5013967;28;20851;-64
2023/08/01 12:01:16;;;;;;;5.37;4.20;;;23.50;94.30;;;;;;5014407;28;21608;-65
2023/08/01 12:03:44;;;;;;;4.27;3.80;;;23.50;94.70;;;;;;5023922;28;20489;-63
2023/08/01 12:06:13;;;;;;;3.10;2.83;;;23.20;94.20;;;;;;5021588;28;20469;-65
2023/08/01 12:08:40;;;;;;;5.07;3.53;;;23.00;93.60;;;;;;5018974;28;20463;-65
2023/08/01 12:11:19;;;;;;;4.30;3.90;;;22.80;94.20;;;;;;5000632;28;20477;-64
2023/08/01 12:13:46;;;;;;;5.70;5.20;;;22.90;94.30;;;;;;5000746;28;20761;-64
2023/08/01 12:16:15;;;;;;;6.70;3.50;;;23.00;94.40;;;;;;5007840;28;20470;-62
2023/08/01 12:18:42;;;;;;;3.73;3.43;;;23.30;95.70;;;;;;5017634;28;20480;-63
2023/08/01 12:21:09;;;;;;;3.50;3.03;;;23.50;94.10;;;;;;5000516;28;20484;-65
2023/08/01 12:23:37;;;;;;;3.23;2.73;;;23.70;94.30;;;;;;5025045;28;20541;-63
2023/08/01 12:26:03;;;;;;;3.80;2.50;;;24.00;94.60;;;;;;5018544;28;20458;-64
2023/08/01 12:28:32;;;;;;;4.03;2.53;;;23.90;93.30;;;;;;5015391;28;20475;-63
2023/08/01 12:30:58;;;;;;;5.13;3.50;;;23.90;93.20;;;;;;4984876;28;20442;-62
2023/08/01 12:33:26;;;;;;;7.33;4.10;;;23.80;92.50;;;;;;4982994;28;20460;-64
2023/08/01 12:35:52;;;;;;;3.37;3.07;;;23.80;93.80;;;;;;5016238;28;20448;-66
2023/08/01 12:38:19;;;;;;;3.57;3.00;;;23.70;93.30;;;;;;5012456;28;20835;-65
2023/08/01 12:40:47;;;;;;;3.60;2.40;;;23.90;92.70;;;;;;5010602;28;20627;-63
2023/08/01 12:43:14;;;;;;;5.13;3.00;;;23.90;93.40;;;;;;5012226;28;20535;-63